Vancouver, WA

4:40 AM PST on December 10, 2016 (GMT -0800)
Tiffany Park, Fircrest | | Change Station

Elev 325 ft 45.63 °N, 122.55 °W | Updated 1 minute ago

Overcast
Overcast
32.2 °F
Feels Like 32 °F
N
0.0
Wind Variable Wind from East

Today
High -- | Low -- °F
--% Chance of Precip.
Yesterday
High -- | Low -- °F
Precip. -- in
Pressure 29.95 in
Visibility 10.0 miles
Clouds Few 900 ft
Overcast 1400 ft
Windchill 32 °F
Dew Point 31 °F
Humidity 97%
Rainfall 0.04 in
Snow Depth Not available.
7:40 AM 4:26 PM
Waxing Gibbous, 83% visible
SPECI KPDX 101207Z 13005KT 10SM -RA FEW009 OVC014 00/M01 A2995 RMK AO2 P0000 T00001011 $
Pressure 29.95 in
Visibility 10.0 miles
Clouds Few 900 ft
Overcast 1400 ft
Windchill 32 °F
Dew Point 31 °F
Humidity 97%
Rainfall 0.04 in
Snow Depth Not available.
7:40 AM 4:26 PM
Waxing Gibbous, 83% visible
SPECI KPDX 101207Z 13005KT 10SM -RA FEW009 OVC014 00/M01 A2995 RMK AO2 P0000 T00001011 $

10-Day Weather Forecast

Almanac

Astronomy

Dec. 10, 2016 Rise Set
Actual Time
Civil Twilight
Nautical Twilight
Astronomical Twilight
Moon
Length of Visible Light
Length of Day
Tomorrow will be .
, % of the Moon is Illuminated

Today's Extremes

State Highs State Lows

Community

WunderPhotos

Upload Photos

1,956,540 photos uploaded!

WunderBlog® & News

Nearby

Air Quality

  Air Quality AQ Index Pollutant
Not available.

Snow Depth

Station Depth Elevation

Earthquake Activity

City Distance Mag. Time & Date
Minimum magnitude displayed is 2.5.

Coastal Water Temperatures

Place Temperature

Stations

Nearby Weather Stations

Station Location Temp. Windchill Dew Point Humidity Wind Precip. Elev Updated Type
                   

Watches & Warnings

There are currently no watches in effect.